CEB822 RPUV-RPLL
Flight info
| Callsign | CEB822 |
|---|---|
| Flight time | 0h 52m |
| Altitude | 28000 |
| Route | DCT NGA W9 AKDAP AKDAP3R |
| Aircraft | A20N/M-SDE2E3FGHIRWXY/LB1 |
Departure
| Time | 2026-05-07 06:59 |
|---|---|
| Airport | Virac Airport (RPUV) |
Arrival
| Time | 2026-05-07 07:52 |
|---|---|
| Airport | Ninoy Aquino International Airport (RPLL) |
| Time | Latitude | Longitude | Altitude | Speed | Heading |
|---|---|---|---|---|---|
| 2026-05-07 06:50 | 13.57975 | 124.21230 | 160 ft | 0 kts | 174° |
| 2026-05-07 06:51 | 13.57975 | 124.21229 | 160 ft | 0 kts | 173° |
| 2026-05-07 06:53 | 13.57974 | 124.21229 | 160 ft | 0 kts | 182° |
| 2026-05-07 06:53 | 13.57970 | 124.21227 | 160 ft | 0 kts | 214° |
| 2026-05-07 06:54 | 13.57970 | 124.21220 | 160 ft | 2 kts | 275° |
| 2026-05-07 06:54 | 13.57973 | 124.21197 | 160 ft | 3 kts | 278° |
| 2026-05-07 06:54 | 13.57975 | 124.21164 | 160 ft | 5 kts | 263° |
| 2026-05-07 06:54 | 13.57974 | 124.21118 | 160 ft | 6 kts | 288° |
| 2026-05-07 06:55 | 13.57997 | 124.21073 | 160 ft | 7 kts | 296° |
| 2026-05-07 06:55 | 13.57995 | 124.21018 | 160 ft | 8 kts | 248° |
| 2026-05-07 06:55 | 13.57963 | 124.20964 | 160 ft | 9 kts | 238° |
| 2026-05-07 06:55 | 13.57927 | 124.20902 | 160 ft | 10 kts | 239° |
| 2026-05-07 06:56 | 13.57888 | 124.20834 | 160 ft | 12 kts | 241° |
| 2026-05-07 06:56 | 13.57839 | 124.20744 | 160 ft | 16 kts | 240° |
| 2026-05-07 06:56 | 13.57777 | 124.20631 | 160 ft | 19 kts | 241° |
| 2026-05-07 06:56 | 13.57702 | 124.20496 | 160 ft | 23 kts | 240° |
| 2026-05-07 06:57 | 13.57619 | 124.20346 | 160 ft | 25 kts | 241° |
| 2026-05-07 06:57 | 13.57529 | 124.20181 | 159 ft | 27 kts | 240° |
| 2026-05-07 06:57 | 13.57437 | 124.20010 | 159 ft | 26 kts | 242° |
| 2026-05-07 06:57 | 13.57339 | 124.19864 | 159 ft | 13 kts | 233° |
| 2026-05-07 06:58 | 13.57321 | 124.19795 | 159 ft | 8 kts | 277° |
| 2026-05-07 06:58 | 13.57318 | 124.19778 | 159 ft | 1 kts | 175° |
| 2026-05-07 06:58 | 13.57316 | 124.19791 | 159 ft | 3 kts | 77° |
| 2026-05-07 06:58 | 13.57378 | 124.19907 | 159 ft | 52 kts | 60° |
| 2026-05-07 06:59 | 13.57690 | 124.20474 | 160 ft | 126 kts | 60° |
| 2026-05-07 06:59 | 13.58209 | 124.21412 | 463 ft | 156 kts | 61° |
| 2026-05-07 06:59 | 13.58740 | 124.22368 | 1240 ft | 154 kts | 61° |
| 2026-05-07 06:59 | 13.59246 | 124.23297 | 2035 ft | 151 kts | 67° |
| 2026-05-07 07:00 | 13.59316 | 124.24371 | 2485 ft | 162 kts | 106° |
| 2026-05-07 07:00 | 13.58637 | 124.25368 | 2852 ft | 183 kts | 139° |
| 2026-05-07 07:00 | 13.57370 | 124.25803 | 3255 ft | 207 kts | 178° |
| 2026-05-07 07:00 | 13.55962 | 124.25317 | 3724 ft | 227 kts | 213° |
| 2026-05-07 07:01 | 13.54916 | 124.24007 | 4125 ft | 251 kts | 250° |
| 2026-05-07 07:01 | 13.54714 | 124.22218 | 4615 ft | 266 kts | 276° |
| 2026-05-07 07:01 | 13.54967 | 124.20250 | 5111 ft | 282 kts | 279° |
| 2026-05-07 07:01 | 13.55223 | 124.18216 | 5689 ft | 294 kts | 275° |
| 2026-05-07 07:02 | 13.55370 | 124.16111 | 6452 ft | 298 kts | 273° |
| 2026-05-07 07:02 | 13.55470 | 124.13979 | 7226 ft | 301 kts | 272° |
| 2026-05-07 07:02 | 13.55552 | 124.11846 | 7952 ft | 304 kts | 272° |
| 2026-05-07 07:02 | 13.55629 | 124.09654 | 8700 ft | 307 kts | 272° |
| 2026-05-07 07:03 | 13.55702 | 124.07490 | 9387 ft | 310 kts | 272° |
| 2026-05-07 07:03 | 13.55775 | 124.05277 | 10066 ft | 313 kts | 272° |
| 2026-05-07 07:03 | 13.55850 | 124.03001 | 10589 ft | 322 kts | 272° |
| 2026-05-07 07:03 | 13.55926 | 124.00668 | 10880 ft | 339 kts | 272° |
| 2026-05-07 07:04 | 13.56007 | 123.98163 | 11162 ft | 355 kts | 272° |
| 2026-05-07 07:04 | 13.56090 | 123.95630 | 11594 ft | 364 kts | 272° |
| 2026-05-07 07:04 | 13.56176 | 123.93004 | 12202 ft | 367 kts | 272° |
| 2026-05-07 07:04 | 13.56261 | 123.90357 | 12817 ft | 370 kts | 272° |
| 2026-05-07 07:05 | 13.56344 | 123.87752 | 13393 ft | 372 kts | 272° |
| 2026-05-07 07:05 | 13.56429 | 123.85072 | 13966 ft | 375 kts | 272° |
| 2026-05-07 07:05 | 13.56514 | 123.82389 | 14532 ft | 378 kts | 272° |
| 2026-05-07 07:05 | 13.56599 | 123.79684 | 15060 ft | 381 kts | 272° |
| 2026-05-07 07:06 | 13.56685 | 123.76965 | 15576 ft | 384 kts | 272° |
| 2026-05-07 07:06 | 13.56773 | 123.74184 | 16101 ft | 386 kts | 272° |
| 2026-05-07 07:06 | 13.56860 | 123.71439 | 16584 ft | 389 kts | 272° |
| 2026-05-07 07:06 | 13.56948 | 123.68648 | 17070 ft | 392 kts | 273° |
| 2026-05-07 07:07 | 13.57036 | 123.65847 | 17551 ft | 395 kts | 273° |
| 2026-05-07 07:07 | 13.57125 | 123.63031 | 18036 ft | 397 kts | 272° |
| 2026-05-07 07:07 | 13.57214 | 123.60164 | 18509 ft | 399 kts | 272° |
| 2026-05-07 07:07 | 13.57303 | 123.57301 | 18947 ft | 402 kts | 272° |
| 2026-05-07 07:08 | 13.57392 | 123.54419 | 19400 ft | 404 kts | 272° |
| 2026-05-07 07:08 | 13.57481 | 123.51547 | 19839 ft | 406 kts | 272° |
| 2026-05-07 07:08 | 13.57569 | 123.48649 | 20258 ft | 409 kts | 272° |
| 2026-05-07 07:08 | 13.57660 | 123.45684 | 20683 ft | 412 kts | 272° |
| 2026-05-07 07:09 | 13.57748 | 123.42786 | 21146 ft | 412 kts | 272° |
| 2026-05-07 07:09 | 13.57838 | 123.39834 | 21573 ft | 415 kts | 272° |
| 2026-05-07 07:09 | 13.57928 | 123.36829 | 21980 ft | 417 kts | 272° |
| 2026-05-07 07:09 | 13.58019 | 123.33809 | 22389 ft | 420 kts | 272° |
| 2026-05-07 07:10 | 13.58116 | 123.30772 | 22814 ft | 422 kts | 274° |
| 2026-05-07 07:10 | 13.58491 | 123.27732 | 23247 ft | 423 kts | 283° |
| 2026-05-07 07:10 | 13.59311 | 123.24801 | 23684 ft | 424 kts | 291° |
| 2026-05-07 07:10 | 13.60498 | 123.22044 | 24115 ft | 424 kts | 296° |
| 2026-05-07 07:11 | 13.61823 | 123.19295 | 24537 ft | 426 kts | 297° |
| 2026-05-07 07:11 | 13.63152 | 123.16578 | 24940 ft | 428 kts | 297° |
| 2026-05-07 07:11 | 13.64479 | 123.13850 | 25336 ft | 430 kts | 297° |
| 2026-05-07 07:11 | 13.65811 | 123.11089 | 25748 ft | 431 kts | 297° |
| 2026-05-07 07:12 | 13.67131 | 123.08340 | 26159 ft | 432 kts | 296° |
| 2026-05-07 07:12 | 13.68475 | 123.05532 | 26546 ft | 434 kts | 296° |
| 2026-05-07 07:12 | 13.69805 | 123.02747 | 26918 ft | 436 kts | 296° |
| 2026-05-07 07:12 | 13.71136 | 122.99956 | 27279 ft | 438 kts | 296° |
| 2026-05-07 07:13 | 13.72476 | 122.97146 | 27619 ft | 439 kts | 296° |
| 2026-05-07 07:13 | 13.73829 | 122.94308 | 27833 ft | 442 kts | 296° |
| 2026-05-07 07:13 | 13.75174 | 122.91479 | 27838 ft | 441 kts | 296° |
| 2026-05-07 07:13 | 13.76510 | 122.88671 | 27841 ft | 441 kts | 296° |
| 2026-05-07 07:14 | 13.77866 | 122.85819 | 27841 ft | 440 kts | 296° |
| 2026-05-07 07:14 | 13.79194 | 122.83026 | 27845 ft | 440 kts | 296° |
| 2026-05-07 07:14 | 13.80559 | 122.80154 | 27848 ft | 440 kts | 296° |
| 2026-05-07 07:14 | 13.81897 | 122.77338 | 27853 ft | 440 kts | 296° |
| 2026-05-07 07:15 | 13.83242 | 122.74509 | 27852 ft | 439 kts | 296° |
| 2026-05-07 07:15 | 13.84579 | 122.71699 | 27854 ft | 439 kts | 296° |
| 2026-05-07 07:15 | 13.85919 | 122.68880 | 27859 ft | 439 kts | 296° |
| 2026-05-07 07:15 | 13.87261 | 122.66055 | 27860 ft | 439 kts | 296° |
| 2026-05-07 07:16 | 13.88602 | 122.63232 | 27861 ft | 440 kts | 296° |
| 2026-05-07 07:16 | 13.89941 | 122.60410 | 27865 ft | 440 kts | 296° |
| 2026-05-07 07:16 | 13.91296 | 122.57554 | 27865 ft | 440 kts | 296° |
| 2026-05-07 07:16 | 13.92639 | 122.54720 | 27867 ft | 440 kts | 296° |
| 2026-05-07 07:17 | 13.93985 | 122.51880 | 27857 ft | 440 kts | 296° |
| 2026-05-07 07:17 | 13.95330 | 122.49040 | 27853 ft | 440 kts | 296° |
| 2026-05-07 07:17 | 13.96660 | 122.46230 | 27856 ft | 440 kts | 296° |
| 2026-05-07 07:17 | 13.98002 | 122.43391 | 27855 ft | 439 kts | 296° |
| 2026-05-07 07:18 | 13.99327 | 122.40590 | 27854 ft | 439 kts | 296° |
| 2026-05-07 07:18 | 14.00676 | 122.37736 | 27850 ft | 439 kts | 296° |
| 2026-05-07 07:18 | 14.02018 | 122.34896 | 27850 ft | 439 kts | 296° |
| 2026-05-07 07:18 | 14.03372 | 122.32033 | 27846 ft | 440 kts | 296° |
| 2026-05-07 07:19 | 14.04701 | 122.29223 | 27846 ft | 440 kts | 296° |
| 2026-05-07 07:19 | 14.06048 | 122.26370 | 27844 ft | 440 kts | 296° |
| 2026-05-07 07:19 | 14.07370 | 122.23572 | 27841 ft | 440 kts | 296° |
| 2026-05-07 07:19 | 14.08713 | 122.20725 | 27840 ft | 440 kts | 296° |
| 2026-05-07 07:20 | 14.10051 | 122.17888 | 27825 ft | 440 kts | 296° |
| 2026-05-07 07:20 | 14.11392 | 122.15041 | 27333 ft | 444 kts | 296° |
| 2026-05-07 07:20 | 14.12755 | 122.12146 | 26621 ft | 444 kts | 296° |
| 2026-05-07 07:20 | 14.14150 | 122.09182 | 26016 ft | 441 kts | 296° |
| 2026-05-07 07:21 | 14.15524 | 122.06264 | 25473 ft | 436 kts | 296° |
| 2026-05-07 07:21 | 14.16838 | 122.03470 | 24962 ft | 432 kts | 296° |
| 2026-05-07 07:21 | 14.18150 | 122.00683 | 24465 ft | 427 kts | 296° |
| 2026-05-07 07:21 | 14.19439 | 121.97941 | 23974 ft | 423 kts | 296° |
| 2026-05-07 07:22 | 14.20709 | 121.95238 | 23479 ft | 419 kts | 296° |
| 2026-05-07 07:22 | 14.21882 | 121.92542 | 22988 ft | 416 kts | 293° |
| 2026-05-07 07:22 | 14.22907 | 121.89750 | 22485 ft | 413 kts | 290° |
| 2026-05-07 07:22 | 14.23817 | 121.86953 | 22001 ft | 410 kts | 289° |
| 2026-05-07 07:23 | 14.24706 | 121.84166 | 21511 ft | 408 kts | 289° |
| 2026-05-07 07:23 | 14.25580 | 121.81420 | 21038 ft | 405 kts | 289° |
| 2026-05-07 07:23 | 14.26465 | 121.78646 | 20539 ft | 403 kts | 289° |
| 2026-05-07 07:23 | 14.27326 | 121.75948 | 20051 ft | 401 kts | 289° |
| 2026-05-07 07:24 | 14.28203 | 121.73205 | 19560 ft | 398 kts | 289° |
| 2026-05-07 07:24 | 14.29063 | 121.70514 | 19059 ft | 396 kts | 289° |
| 2026-05-07 07:24 | 14.29934 | 121.67793 | 18583 ft | 394 kts | 289° |
| 2026-05-07 07:24 | 14.30790 | 121.65115 | 18105 ft | 392 kts | 289° |
| 2026-05-07 07:25 | 14.32473 | 121.59847 | 17143 ft | 388 kts | 289° |
| 2026-05-07 07:25 | 14.33319 | 121.57198 | 16672 ft | 385 kts | 289° |
| 2026-05-07 07:25 | 14.34152 | 121.54590 | 16216 ft | 383 kts | 289° |
| 2026-05-07 07:26 | 14.34983 | 121.51987 | 15746 ft | 381 kts | 289° |
| 2026-05-07 07:26 | 14.35816 | 121.49375 | 15253 ft | 379 kts | 289° |
| 2026-05-07 07:26 | 14.36638 | 121.46798 | 14759 ft | 377 kts | 289° |
| 2026-05-07 07:26 | 14.37454 | 121.44240 | 14289 ft | 375 kts | 289° |
| 2026-05-07 07:27 | 14.38260 | 121.41708 | 13793 ft | 372 kts | 289° |
| 2026-05-07 07:27 | 14.39065 | 121.39176 | 13315 ft | 371 kts | 289° |
| 2026-05-07 07:27 | 14.39883 | 121.36604 | 12851 ft | 369 kts | 289° |
| 2026-05-07 07:27 | 14.40673 | 121.34124 | 12377 ft | 367 kts | 289° |
| 2026-05-07 07:28 | 14.41466 | 121.31630 | 11892 ft | 364 kts | 289° |
| 2026-05-07 07:28 | 14.42254 | 121.29152 | 11427 ft | 362 kts | 289° |
| 2026-05-07 07:28 | 14.43045 | 121.26666 | 10959 ft | 360 kts | 289° |
| 2026-05-07 07:28 | 14.43811 | 121.24256 | 10538 ft | 357 kts | 289° |
| 2026-05-07 07:29 | 14.44571 | 121.21864 | 10295 ft | 346 kts | 289° |
| 2026-05-07 07:29 | 14.45313 | 121.19524 | 10176 ft | 332 kts | 289° |
| 2026-05-07 07:29 | 14.46018 | 121.17294 | 10051 ft | 319 kts | 289° |
| 2026-05-07 07:29 | 14.46695 | 121.15159 | 9927 ft | 307 kts | 289° |
| 2026-05-07 07:30 | 14.47368 | 121.13039 | 9564 ft | 305 kts | 289° |
| 2026-05-07 07:30 | 14.48025 | 121.10967 | 9205 ft | 304 kts | 289° |
| 2026-05-07 07:30 | 14.48703 | 121.08826 | 8834 ft | 302 kts | 289° |
| 2026-05-07 07:30 | 14.49359 | 121.06756 | 8479 ft | 300 kts | 289° |
| 2026-05-07 07:31 | 14.50016 | 121.04683 | 8130 ft | 298 kts | 289° |
| 2026-05-07 07:31 | 14.50683 | 121.02576 | 7775 ft | 295 kts | 289° |
| 2026-05-07 07:31 | 14.51331 | 121.00585 | 7437 ft | 293 kts | 290° |
| 2026-05-07 07:31 | 14.52006 | 120.98586 | 7095 ft | 291 kts | 290° |
| 2026-05-07 07:32 | 14.52674 | 120.96623 | 6758 ft | 289 kts | 290° |
| 2026-05-07 07:32 | 14.53339 | 120.94659 | 6421 ft | 287 kts | 290° |
| 2026-05-07 07:32 | 14.53989 | 120.92734 | 6091 ft | 285 kts | 290° |
| 2026-05-07 07:32 | 14.54638 | 120.90810 | 5760 ft | 283 kts | 290° |
| 2026-05-07 07:33 | 14.55286 | 120.88882 | 5424 ft | 282 kts | 290° |
| 2026-05-07 07:33 | 14.55931 | 120.86965 | 5098 ft | 280 kts | 290° |
| 2026-05-07 07:33 | 14.56569 | 120.85066 | 4772 ft | 278 kts | 290° |
| 2026-05-07 07:33 | 14.57203 | 120.83184 | 4457 ft | 276 kts | 291° |
| 2026-05-07 07:34 | 14.58126 | 120.81481 | 4084 ft | 272 kts | 318° |
| 2026-05-07 07:34 | 14.59703 | 120.80508 | 3883 ft | 257 kts | 348° |
| 2026-05-07 07:34 | 14.61399 | 120.80389 | 3842 ft | 236 kts | 13° |
| 2026-05-07 07:34 | 14.62891 | 120.80976 | 3803 ft | 225 kts | 37° |
| 2026-05-07 07:35 | 14.64001 | 120.82094 | 3756 ft | 222 kts | 58° |
| 2026-05-07 07:35 | 14.64599 | 120.83557 | 3653 ft | 221 kts | 80° |
| 2026-05-07 07:35 | 14.64599 | 120.85120 | 3511 ft | 214 kts | 101° |
| 2026-05-07 07:35 | 14.64064 | 120.86502 | 3379 ft | 207 kts | 120° |
| 2026-05-07 07:36 | 14.63187 | 120.87671 | 3231 ft | 200 kts | 128° |
| 2026-05-07 07:36 | 14.62261 | 120.88719 | 3012 ft | 194 kts | 129° |
| 2026-05-07 07:36 | 14.61358 | 120.89737 | 2738 ft | 187 kts | 129° |
| 2026-05-07 07:36 | 14.60510 | 120.90708 | 2480 ft | 180 kts | 128° |
| 2026-05-07 07:37 | 14.59693 | 120.91659 | 2239 ft | 174 kts | 127° |
| 2026-05-07 07:37 | 14.58868 | 120.92629 | 2049 ft | 197 kts | 128° |
| 2026-05-07 07:37 | 14.57915 | 120.93754 | 2383 ft | 217 kts | 128° |
| 2026-05-07 07:37 | 14.56890 | 120.94961 | 2909 ft | 226 kts | 129° |
| 2026-05-07 07:38 | 14.55851 | 120.96181 | 3507 ft | 227 kts | 128° |
| 2026-05-07 07:38 | 14.54755 | 120.97467 | 3867 ft | 228 kts | 129° |
| 2026-05-07 07:38 | 14.53696 | 120.98710 | 3954 ft | 229 kts | 129° |
| 2026-05-07 07:38 | 14.52605 | 120.99988 | 3958 ft | 228 kts | 128° |
| 2026-05-07 07:39 | 14.51530 | 121.01249 | 3958 ft | 228 kts | 128° |
| 2026-05-07 07:39 | 14.50419 | 121.02551 | 3965 ft | 237 kts | 128° |
| 2026-05-07 07:39 | 14.49280 | 121.03889 | 3963 ft | 244 kts | 128° |
| 2026-05-07 07:39 | 14.48157 | 121.05206 | 3960 ft | 244 kts | 129° |
| 2026-05-07 07:40 | 14.47019 | 121.06540 | 3963 ft | 245 kts | 129° |
| 2026-05-07 07:40 | 14.45891 | 121.07863 | 3965 ft | 245 kts | 128° |
| 2026-05-07 07:40 | 14.44767 | 121.09179 | 3966 ft | 245 kts | 129° |
| 2026-05-07 07:40 | 14.43624 | 121.10518 | 3960 ft | 244 kts | 129° |
| 2026-05-07 07:41 | 14.42269 | 121.11602 | 3943 ft | 250 kts | 158° |
| 2026-05-07 07:41 | 14.40513 | 121.11688 | 3955 ft | 257 kts | 194° |
| 2026-05-07 07:41 | 14.38960 | 121.10775 | 3967 ft | 262 kts | 224° |
| 2026-05-07 07:41 | 14.37996 | 121.09168 | 3964 ft | 264 kts | 255° |
| 2026-05-07 07:42 | 14.37909 | 121.07327 | 3965 ft | 262 kts | 285° |
| 2026-05-07 07:42 | 14.38715 | 121.05654 | 3974 ft | 258 kts | 311° |
| 2026-05-07 07:42 | 14.39916 | 121.04205 | 3976 ft | 258 kts | 313° |
| 2026-05-07 07:42 | 14.41127 | 121.02761 | 3971 ft | 258 kts | 313° |
| 2026-05-07 07:43 | 14.42307 | 121.01319 | 3970 ft | 258 kts | 312° |
| 2026-05-07 07:43 | 14.43473 | 120.99869 | 3970 ft | 258 kts | 312° |
| 2026-05-07 07:43 | 14.44646 | 120.98391 | 3966 ft | 258 kts | 311° |
| 2026-05-07 07:43 | 14.45787 | 120.96942 | 3966 ft | 258 kts | 311° |
| 2026-05-07 07:44 | 14.46917 | 120.95502 | 3966 ft | 258 kts | 311° |
| 2026-05-07 07:44 | 14.48044 | 120.94060 | 3965 ft | 258 kts | 311° |
| 2026-05-07 07:44 | 14.49176 | 120.92609 | 3962 ft | 258 kts | 311° |
| 2026-05-07 07:44 | 14.50298 | 120.91168 | 3958 ft | 258 kts | 311° |
| 2026-05-07 07:45 | 14.51442 | 120.89733 | 3957 ft | 257 kts | 314° |
| 2026-05-07 07:45 | 14.52664 | 120.88374 | 3955 ft | 257 kts | 316° |
| 2026-05-07 07:45 | 14.53894 | 120.87043 | 3954 ft | 257 kts | 316° |
| 2026-05-07 07:45 | 14.55135 | 120.85709 | 3956 ft | 256 kts | 316° |
| 2026-05-07 07:46 | 14.56372 | 120.84383 | 3950 ft | 254 kts | 316° |
| 2026-05-07 07:46 | 14.57575 | 120.83091 | 3948 ft | 240 kts | 316° |
| 2026-05-07 07:46 | 14.58773 | 120.81918 | 3944 ft | 236 kts | 331° |
| 2026-05-07 07:46 | 14.60314 | 120.81500 | 3936 ft | 227 kts | 11° |
| 2026-05-07 07:47 | 14.61710 | 120.82107 | 3826 ft | 218 kts | 42° |
| 2026-05-07 07:47 | 14.62650 | 120.83333 | 3632 ft | 220 kts | 67° |
| 2026-05-07 07:47 | 14.63014 | 120.84856 | 3541 ft | 221 kts | 81° |
| 2026-05-07 07:47 | 14.63225 | 120.86431 | 3423 ft | 215 kts | 82° |
| 2026-05-07 07:48 | 14.63209 | 120.87935 | 3184 ft | 214 kts | 108° |
| 2026-05-07 07:48 | 14.62346 | 120.89193 | 2883 ft | 217 kts | 134° |
| 2026-05-07 07:48 | 14.61221 | 120.90246 | 2620 ft | 215 kts | 134° |
| 2026-05-07 07:48 | 14.60154 | 120.91299 | 2350 ft | 207 kts | 131° |
| 2026-05-07 07:49 | 14.59193 | 120.92327 | 2145 ft | 189 kts | 130° |
| 2026-05-07 07:49 | 14.58330 | 120.93295 | 1876 ft | 174 kts | 128° |
| 2026-05-07 07:49 | 14.57547 | 120.94194 | 1600 ft | 161 kts | 127° |
| 2026-05-07 07:49 | 14.56843 | 120.95019 | 1360 ft | 147 kts | 128° |
| 2026-05-07 07:50 | 14.56197 | 120.95778 | 1149 ft | 134 kts | 126° |
| 2026-05-07 07:50 | 14.55633 | 120.96555 | 994 ft | 132 kts | 119° |
| 2026-05-07 07:50 | 14.55133 | 120.97369 | 807 ft | 132 kts | 123° |
| 2026-05-07 07:50 | 14.54491 | 120.98162 | 632 ft | 133 kts | 130° |
| 2026-05-07 07:51 | 14.53775 | 120.98949 | 452 ft | 133 kts | 131° |
| 2026-05-07 07:51 | 14.53030 | 120.99715 | 289 ft | 132 kts | 133° |
| 2026-05-07 07:51 | 14.52291 | 121.00476 | 101 ft | 132 kts | 131° |
| 2026-05-07 07:51 | 14.51622 | 121.01172 | 82 ft | 84 kts | 134° |
| 2026-05-07 07:52 | 14.51361 | 121.01443 | 82 ft | 10 kts | 130° |
| 2026-05-07 07:52 | 14.51349 | 121.01515 | 81 ft | 8 kts | 53° |
| 2026-05-07 07:52 | 14.51379 | 121.01544 | 82 ft | 4 kts | 42° |
| 2026-05-07 07:52 | 14.51408 | 121.01573 | 81 ft | 5 kts | 45° |
| 2026-05-07 07:53 | 14.51448 | 121.01593 | 82 ft | 6 kts | 346° |
| 2026-05-07 07:53 | 14.51488 | 121.01556 | 82 ft | 7 kts | 314° |
| 2026-05-07 07:53 | 14.51536 | 121.01506 | 82 ft | 9 kts | 314° |
| 2026-05-07 07:53 | 14.51588 | 121.01452 | 82 ft | 10 kts | 315° |
| 2026-05-07 07:54 | 14.51645 | 121.01395 | 82 ft | 11 kts | 315° |
| 2026-05-07 07:54 | 14.51707 | 121.01329 | 82 ft | 12 kts | 315° |
| 2026-05-07 07:54 | 14.51774 | 121.01261 | 82 ft | 13 kts | 314° |
| 2026-05-07 07:54 | 14.51843 | 121.01189 | 82 ft | 14 kts | 315° |
| 2026-05-07 07:55 | 14.51916 | 121.01114 | 82 ft | 14 kts | 314° |
| 2026-05-07 07:55 | 14.51989 | 121.01039 | 82 ft | 14 kts | 315° |
| 2026-05-07 07:55 | 14.52063 | 121.00962 | 82 ft | 15 kts | 317° |
| 2026-05-07 07:55 | 14.52138 | 121.00887 | 82 ft | 14 kts | 314° |
| 2026-05-07 07:56 | 14.52172 | 121.00876 | 82 ft | 4 kts | 37° |
| 2026-05-07 07:56 | 14.52196 | 121.00904 | 82 ft | 6 kts | 46° |
| 2026-05-07 07:56 | 14.52222 | 121.00930 | 82 ft | 5 kts | 44° |
| 2026-05-07 07:56 | 14.52237 | 121.00945 | 82 ft | 2 kts | 45° |
| 2026-05-07 07:57 | 14.52243 | 121.00951 | 82 ft | 0 kts | 45° |